KCFV/CFV METAR and TAF weather

Enter ICAO airport designator
Station Type Date Time Source
KCFV METAR 2021/05/11 16:52 UTC NOAA

KCFV 111652Z AUTO 05007KT 10SM OVC085 13/06 A3021 RMK AO2 SLP229 T01330061


Station Type Date Time Source
KCFV Decoded METAR 2021/05/11 16:52 UTC NOAA

COFFEYVILLE MUNICIPAL AIRPORT , KS, United States (KCFV) 37-05N 95-34W 225M
May 11, 2021 - 12:52 PM EDT / 2021.05.11 1652 UTC
Wind: from the NE (050 degrees) at 8 MPH (7 KT):0
Visibility: 10 mile(s):0
Sky conditions: overcast
Temperature: 55.9 F (13.3 C)
Dew Point: 43.0 F (6.1 C)
Relative Humidity: 61%
Pressure (altimeter): 30.21 in. Hg (1023 hPa)
ob: KCFV 111652Z AUTO 05007KT 10SM OVC085 13/06 A3021 RMK AO2 SLP229 T01330061
cycle: 17

Station Type Date Time Source
KCFV TAF UTC NOAA

Error!

Example: see airport list